Time;durP1;ratioP1;P1;durP2;ratioP2;P2;SDS_P1;SDS_P2;PMS_P1;PMS_P2;Temp;Humidity;BMP_temperature;BMP_pressure;BME280_temperature;BME280_humidity;BME280_pressure;Samples;Min_cycle;Max_cycle;Signal;HPM_P1;HPM_P2
2022/02/10 10:12:50;;;;;;;14.27;13.60;;;18.60;79.10;;;;;;5087141;27;20563;-78
2022/02/10 10:15:26;;;;;;;14.67;13.90;;;22.30;63.20;;;;;;5086701;28;20461;-77
2022/02/10 10:21:03;;;;;;;15.50;14.40;;;21.90;63.20;;;;;;5073227;28;20618;-78
2022/02/10 10:23:45;;;;;;;14.80;14.10;;;22.20;61.50;;;;;;5086458;28;20508;-77
2022/02/10 10:52:31;;;;;;;17.17;15.83;;;23.90;56.00;;;;;;5070515;28;20442;-79
2022/02/10 10:55:20;;;;;;;16.80;15.70;;;24.20;56.00;;;;;;5093321;28;20718;-79
2022/02/10 10:57:51;;;;;;;15.83;14.50;;;23.40;55.90;;;;;;5093121;28;20451;-78
2022/02/10 11:00:56;;;;;;;15.33;14.43;;;20.90;59.50;;;;;;5088137;28;21007;-78
2022/02/10 11:03:42;;;;;;;15.73;14.47;;;19.80;63.10;;;;;;5098533;28;20538;-78
2022/02/10 11:36:57;;;;;;;15.57;14.60;;;17.40;79.50;;;;;;5092296;28;20955;-78
2022/02/10 11:39:35;;;;;;;16.83;15.70;;;18.40;76.40;;;;;;5092151;28;20461;-78
2022/02/10 11:42:52;;;;;;;15.20;14.30;;;19.10;73.70;;;;;;5092086;28;20486;-78
2022/02/10 12:44:01;;;;;;;17.87;16.17;;;17.30;76.30;;;;;;5087163;28;20471;-78
2022/02/10 13:23:21;;;;;;;18.33;16.73;;;14.30;93.30;;;;;;5086819;28;20790;-78
2022/02/10 13:49:35;;;;;;;17.43;16.03;;;11.40;99.90;;;;;;5087240;28;20431;-77
2022/02/10 14:13:50;;;;;;;16.33;14.90;;;11.00;99.90;;;;;;5086487;28;20843;-76
2022/02/10 14:16:38;;;;;;;17.07;15.37;;;10.90;99.90;;;;;;5086652;28;20466;-76
2022/02/10 14:19:16;;;;;;;17.60;16.10;;;10.70;99.90;;;;;;5086725;28;20531;-76
2022/02/10 14:21:59;;;;;;;16.50;14.93;;;10.50;99.90;;;;;;5086515;28;20454;-77
2022/02/10 14:27:12;;;;;;;16.37;14.87;;;10.50;99.90;;;;;;5086556;28;20954;-77
2022/02/10 14:29:41;;;;;;;16.77;15.20;;;10.50;99.90;;;;;;5086232;28;20465;-77
2022/02/10 14:32:09;;;;;;;15.70;14.60;;;10.50;99.90;;;;;;5086684;28;20841;-77
2022/02/10 14:34:36;;;;;;;16.53;14.80;;;10.30;99.90;;;;;;5086461;28;20514;-77
2022/02/10 14:37:23;;;;;;;16.90;15.50;;;10.30;99.90;;;;;;5086409;28;20442;-77
2022/02/10 14:40:03;;;;;;;15.73;14.57;;;10.00;99.90;;;;;;5086434;28;20771;-77
2022/02/10 15:20:48;;;;;;;18.17;16.77;;;9.40;99.90;;;;;;5071825;28;20430;-75
2022/02/10 15:21:40;;;;;;;17.70;16.30;;;9.40;99.90;;;;;;5071787;28;20444;-76
2022/02/10 15:46:46;;;;;;;20.37;17.93;;;9.40;99.90;;;;;;5071359;28;20442;-76
2022/02/10 15:49:35;;;;;;;16.07;14.87;;;9.40;99.90;;;;;;5071049;28;20435;-76
2022/02/10 15:52:15;;;;;;;17.50;16.10;;;9.40;99.90;;;;;;5071320;28;20446;-76
2022/02/10 15:54:55;;;;;;;15.93;14.93;;;9.40;99.90;;;;;;5071109;28;20443;-77
2022/02/10 16:11:15;;;;;;;17.13;15.73;;;9.30;99.90;;;;;;5071298;28;20439;-76
2022/02/10 16:14:37;;;;;;;17.40;15.57;;;9.30;99.90;;;;;;5070575;28;20483;-76
2022/02/10 16:17:03;;;;;;;17.57;16.03;;;9.20;99.90;;;;;;5070460;28;20451;-77
2022/02/10 16:19:32;;;;;;;17.70;16.03;;;9.10;99.90;;;;;;5070533;28;20932;-76
2022/02/10 16:22:04;;;;;;;17.67;16.30;;;9.20;99.90;;;;;;5070598;28;20532;-76
2022/02/10 16:24:35;;;;;;;17.43;16.13;;;9.10;99.90;;;;;;5070454;28;20455;-76
2022/02/10 16:27:13;;;;;;;18.23;16.67;;;9.10;99.90;;;;;;5070557;28;20455;-77
2022/02/10 16:29:40;;;;;;;16.87;15.30;;;9.00;99.90;;;;;;5070496;28;20451;-76
2022/02/10 16:32:09;;;;;;;16.07;14.67;;;9.00;99.90;;;;;;5070324;28;20501;-76
2022/02/10 16:34:40;;;;;;;19.43;17.83;;;9.10;99.90;;;;;;5070542;28;20479;-76
2022/02/10 16:37:08;;;;;;;18.43;16.70;;;9.10;99.90;;;;;;5070526;28;20455;-76
2022/02/10 16:39:35;;;;;;;19.17;17.40;;;9.10;99.90;;;;;;5070460;28;20439;-76
2022/02/10 16:42:03;;;;;;;16.20;15.00;;;9.10;99.90;;;;;;5070381;28;20455;-77
2022/02/10 16:44:29;;;;;;;16.87;15.60;;;9.10;99.90;;;;;;5070012;28;20443;-77
2022/02/10 16:46:56;;;;;;;22.13;18.40;;;9.10;99.90;;;;;;5069659;28;20516;-77
2022/02/10 16:49:23;;;;;;;16.17;15.10;;;9.10;99.90;;;;;;5070155;28;20452;-76
2022/02/10 16:51:51;;;;;;;17.50;16.10;;;9.10;99.90;;;;;;5070309;28;20546;-76
2022/02/10 16:54:25;;;;;;;17.27;15.97;;;9.00;99.90;;;;;;5070091;28;20483;-77
2022/02/10 16:57:01;;;;;;;15.53;14.30;;;9.10;99.90;;;;;;5070063;28;20453;-78
2022/02/10 16:59:38;;;;;;;16.63;15.43;;;9.10;99.90;;;;;;5070086;28;20455;-77
2022/02/10 17:02:25;;;;;;;13.57;12.27;;;9.10;99.90;;;;;;5070133;28;20528;-77
2022/02/10 17:05:16;;;;;;;13.77;12.60;;;9.10;99.90;;;;;;5070127;28;20509;-77
2022/02/10 17:19:03;;;;;;;11.80;11.10;;;9.20;99.90;;;;;;5069631;28;20432;-77
2022/02/10 17:25:08;;;;;;;12.07;11.37;;;9.20;99.90;;;;;;5069766;28;20538;-77
2022/02/10 17:27:18;;;;;;;11.50;10.90;;;9.30;99.90;;;;;;5069822;28;20426;-77
2022/02/10 17:30:12;;;;;;;9.90;9.40;;;9.30;99.90;;;;;;5069704;28;20451;-77
2022/02/10 17:32:48;;;;;;;11.47;10.73;;;9.30;99.90;;;;;;5069618;28;20952;-77
2022/02/10 17:35:21;;;;;;;11.27;10.67;;;9.30;99.90;;;;;;5069553;28;20455;-77
2022/02/10 17:44:01;;;;;;;12.07;10.67;;;9.30;99.90;;;;;;5069605;28;20431;-75
2022/02/10 17:46:28;;;;;;;11.93;11.07;;;9.20;99.90;;;;;;5069389;28;20435;-76
2022/02/10 17:51:55;;;;;;;11.20;10.60;;;9.30;99.90;;;;;;5069403;28;20457;-76
2022/02/10 17:54:23;;;;;;;11.17;10.50;;;9.20;99.90;;;;;;5069572;28;20999;-76
2022/02/10 17:56:51;;;;;;;10.87;10.27;;;9.20;99.90;;;;;;5069759;28;20451;-76
